Time;durP1;ratioP1;P1;durP2;ratioP2;P2;SDS_P1;SDS_P2;PMS_P1;PMS_P2;Temp;Humidity;BMP_temperature;BMP_pressure;BME280_temperature;BME280_humidity;BME280_pressure;Samples;Min_cycle;Max_cycle;Signal;HPM_P1;HPM_P2
2023/06/06 00:00:21;;;;;;;3.47;1.80;;;;;;;16.93;48.58;101212.19;5008249;28;20046;-63
2023/06/06 00:02:49;;;;;;;5.30;2.03;;;;;;;16.90;48.47;101215.09;4987683;28;20152;-64
2023/06/06 00:05:17;;;;;;;6.90;2.25;;;;;;;16.87;48.40;101210.00;4997991;28;20058;-65
2023/06/06 00:07:45;;;;;;;4.25;1.65;;;;;;;16.84;48.69;101212.88;5006493;28;20049;-63
2023/06/06 00:10:15;;;;;;;3.67;2.10;;;;;;;16.79;48.86;101204.41;4991612;28;20120;-65
2023/06/06 00:12:43;;;;;;;2.85;1.92;;;;;;;16.76;48.88;101208.16;4988521;28;20057;-64
2023/06/06 00:15:13;;;;;;;8.52;2.38;;;;;;;16.71;48.84;101208.47;5009785;28;20061;-67
2023/06/06 00:17:44;;;;;;;5.40;2.30;;;;;;;16.66;49.19;101207.13;4985419;28;20112;-64
2023/06/06 00:20:13;;;;;;;5.32;2.30;;;;;;;16.61;49.40;101203.97;5016962;28;20069;-64
2023/06/06 00:22:41;;;;;;;6.07;2.80;;;;;;;16.55;49.45;101199.94;5013007;28;20046;-63
2023/06/06 00:25:09;;;;;;;5.13;2.28;;;;;;;16.51;49.77;101205.63;4990280;28;20074;-63
2023/06/06 00:27:36;;;;;;;6.68;1.90;;;;;;;16.45;49.68;101204.28;5009632;28;20145;-63
2023/06/06 00:30:05;;;;;;;3.28;1.73;;;;;;;16.43;49.64;101198.19;4989077;28;20074;-64
2023/06/06 00:32:32;;;;;;;5.97;1.90;;;;;;;16.42;49.49;101201.81;5010479;28;20137;-64
2023/06/06 00:35:00;;;;;;;2.90;1.60;;;;;;;16.39;49.36;101196.72;5010883;28;20052;-64
2023/06/06 00:37:28;;;;;;;5.47;2.10;;;;;;;16.36;49.86;101194.31;5009357;28;20054;-65
2023/06/06 00:39:55;;;;;;;3.92;2.00;;;;;;;16.33;49.75;101194.53;5011315;28;20042;-65
2023/06/06 00:42:22;;;;;;;4.63;2.80;;;;;;;16.30;49.83;101200.06;5002507;28;20053;-64
2023/06/06 00:44:50;;;;;;;6.55;2.35;;;;;;;16.27;49.85;101202.97;5011142;28;20525;-66
2023/06/06 00:47:17;;;;;;;2.70;1.88;;;;;;;16.26;49.98;101188.84;4994128;28;20045;-64
2023/06/06 00:49:46;;;;;;;4.68;1.98;;;;;;;16.24;50.42;101195.22;5004701;28;20070;-65
2023/06/06 00:52:14;;;;;;;3.95;1.95;;;;;;;16.19;50.21;101193.75;5014531;28;20050;-63
2023/06/06 00:54:42;;;;;;;5.30;2.15;;;;;;;16.15;50.43;101197.59;4993483;28;20469;-65
2023/06/06 00:57:09;;;;;;;4.07;1.98;;;;;;;16.13;50.37;101199.53;5006264;28;20073;-64
2023/06/06 00:59:38;;;;;;;4.25;1.80;;;;;;;16.09;50.56;101199.84;5002491;28;20050;-64
2023/06/06 01:02:10;;;;;;;4.15;2.00;;;;;;;16.07;50.68;101194.63;4993228;28;20132;-63
2023/06/06 01:04:43;;;;;;;3.25;1.73;;;;;;;16.03;50.70;101197.63;5001136;28;20635;-65
2023/06/06 01:07:12;;;;;;;5.32;2.25;;;;;;;16.02;50.42;101195.94;5002926;28;20068;-65
2023/06/06 01:09:40;;;;;;;3.45;1.52;;;;;;;16.01;50.49;101192.44;5007331;28;20114;-64
2023/06/06 01:12:30;;;;;;;4.50;2.20;;;;;;;16.01;50.50;101199.56;5006732;28;20462;-61
2023/06/06 01:15:25;;;;;;;4.15;1.95;;;;;;;16.02;50.49;101203.91;5007596;28;20050;-64
2023/06/06 01:17:53;;;;;;;6.75;1.98;;;;;;;16.00;50.63;101195.22;5006015;28;20463;-65
2023/06/06 01:20:23;;;;;;;3.97;1.75;;;;;;;15.99;50.48;101191.72;4987095;28;20404;-64
2023/06/06 01:22:52;;;;;;;3.22;1.90;;;;;;;15.97;50.64;101195.44;5005088;28;20125;-65
2023/06/06 01:25:23;;;;;;;3.70;1.90;;;;;;;15.96;50.66;101194.59;5003430;28;20062;-65
2023/06/06 01:27:53;;;;;;;3.80;1.67;;;;;;;15.95;50.52;101196.41;5010480;28;20424;-65
2023/06/06 01:30:25;;;;;;;4.80;2.10;;;;;;;15.94;50.82;101188.56;5009258;28;20058;-64
2023/06/06 01:33:22;;;;;;;4.45;1.88;;;;;;;15.92;50.31;101193.94;5004226;28;20053;-66
2023/06/06 01:35:59;;;;;;;3.72;1.70;;;;;;;15.92;50.39;101187.78;4976187;28;20060;-66
2023/06/06 01:38:50;;;;;;;3.83;2.00;;;;;;;15.91;50.62;101189.59;4994969;28;20050;-63
2023/06/06 01:41:19;;;;;;;4.85;1.95;;;;;;;15.88;50.60;101187.16;4992392;28;20081;-63
2023/06/06 01:43:50;;;;;;;4.93;1.92;;;;;;;15.87;50.58;101184.63;5006819;28;20045;-66
2023/06/06 01:46:18;;;;;;;3.38;1.83;;;;;;;15.87;50.43;101187.28;4989704;28;20073;-63
2023/06/06 01:48:46;;;;;;;4.95;1.98;;;;;;;15.86;50.69;101185.59;4978806;28;20060;-65
2023/06/06 01:51:14;;;;;;;3.38;2.00;;;;;;;15.84;50.67;101188.34;4997604;28;20109;-65
2023/06/06 01:53:41;;;;;;;3.03;2.15;;;;;;;15.82;50.51;101195.56;4994823;28;20136;-66
2023/06/06 01:56:12;;;;;;;7.00;1.90;;;;;;;15.82;50.70;101202.69;5010007;28;20180;-64
2023/06/06 01:58:40;;;;;;;8.07;2.40;;;;;;;15.80;50.87;101196.63;5000809;28;20532;-64
2023/06/06 02:01:08;;;;;;;5.57;2.40;;;;;;;15.76;50.68;101204.00;5003473;28;20560;-63
2023/06/06 02:03:39;;;;;;;2.70;1.80;;;;;;;15.75;50.80;101204.09;4997344;28;20113;-64
2023/06/06 02:06:07;;;;;;;3.55;2.13;;;;;;;15.75;50.65;101201.44;4993443;28;20076;-63
2023/06/06 02:08:34;;;;;;;7.35;2.38;;;;;;;15.73;50.67;101195.41;5015913;28;20132;-62
2023/06/06 02:11:02;;;;;;;6.43;2.50;;;;;;;15.73;50.75;101200.69;5006857;28;20558;-63
2023/06/06 02:13:29;;;;;;;4.55;2.20;;;;;;;15.69;50.64;101192.09;5010984;28;20509;-63
2023/06/06 02:15:57;;;;;;;12.23;2.08;;;;;;;15.69;50.37;101192.94;5008328;28;20049;-64
2023/06/06 02:18:24;;;;;;;4.70;2.30;;;;;;;15.68;50.68;101201.03;4997354;28;20114;-63
2023/06/06 02:20:51;;;;;;;9.25;2.55;;;;;;;15.68;50.69;101191.25;4999675;28;20156;-63
2023/06/06 02:23:19;;;;;;;6.13;2.08;;;;;;;15.67;50.51;101189.56;5003383;28;20051;-64
2023/06/06 02:26:04;;;;;;;5.80;2.10;;;;;;;15.66;50.62;101187.00;5006449;28;20036;-63
2023/06/06 02:28:31;;;;;;;3.72;1.95;;;;;;;15.67;50.63;101194.03;5010018;28;20132;-61
2023/06/06 02:31:00;;;;;;;8.80;2.33;;;;;;;15.66;50.82;101190.50;5009017;28;20064;-64
2023/06/06 02:33:28;;;;;;;5.38;1.98;;;;;;;15.65;50.71;101183.50;5007099;28;20089;-66
2023/06/06 02:35:56;;;;;;;4.15;2.08;;;;;;;15.62;50.92;101182.84;4991332;28;20049;-61
2023/06/06 02:38:23;;;;;;;4.65;2.15;;;;;;;15.59;50.74;101189.22;5009386;28;20049;-64
2023/06/06 02:40:50;;;;;;;5.47;2.13;;;;;;;15.58;50.82;101184.88;4992259;28;20054;-64
2023/06/06 02:43:17;;;;;;;4.85;2.42;;;;;;;15.57;50.84;101180.50;5006890;28;20056;-62
2023/06/06 02:45:46;;;;;;;3.58;2.10;;;;;;;15.56;50.98;101184.13;5003995;28;20060;-64
2023/06/06 02:48:14;;;;;;;6.13;1.98;;;;;;;15.57;50.98;101180.50;4996214;28;20046;-64
2023/06/06 02:50:41;;;;;;;6.68;2.42;;;;;;;15.56;51.02;101181.47;5001383;28;20092;-62
2023/06/06 02:53:09;;;;;;;4.65;1.90;;;;;;;15.56;51.00;101177.97;4987327;28;20053;-64
2023/06/06 02:55:36;;;;;;;8.00;2.47;;;;;;;15.56;50.83;101184.13;5002613;28;20109;-62
2023/06/06 02:58:06;;;;;;;5.00;2.25;;;;;;;15.57;50.65;101182.31;5009508;28;20514;-66
2023/06/06 03:00:34;;;;;;;11.77;2.83;;;;;;;15.60;50.74;101179.47;4990324;28;20049;-64
2023/06/06 03:03:01;;;;;;;6.68;2.45;;;;;;;15.58;50.60;101184.00;5003084;28;20056;-62
2023/06/06 03:05:29;;;;;;;5.35;2.20;;;;;;;15.59;50.75;101185.72;4985416;28;20185;-65
2023/06/06 03:07:58;;;;;;;5.32;2.38;;;;;;;15.55;51.11;101177.13;4983118;28;20081;-65
2023/06/06 03:10:25;;;;;;;4.68;2.28;;;;;;;15.51;51.17;101177.47;4993420;28;20522;-65
2023/06/06 03:12:52;;;;;;;4.15;2.60;;;;;;;15.49;51.25;101176.69;4987816;28;20434;-66
2023/06/06 03:15:20;;;;;;;5.72;2.38;;;;;;;15.47;51.24;101174.16;5007190;28;21389;-63
2023/06/06 03:17:48;;;;;;;6.53;2.38;;;;;;;15.45;51.51;101170.78;4985584;28;20395;-63
2023/06/06 03:20:15;;;;;;;4.25;1.92;;;;;;;15.45;51.36;101170.78;5007122;28;20506;-63
2023/06/06 03:22:48;;;;;;;3.95;2.40;;;;;;;15.47;51.59;101173.31;5008134;28;20046;-64
2023/06/06 03:25:19;;;;;;;5.47;2.70;;;;;;;15.48;51.47;101175.00;5005856;28;20635;-63
2023/06/06 03:27:48;;;;;;;7.45;2.92;;;;;;;15.49;51.48;101176.69;4991139;28;20468;-63
2023/06/06 03:30:16;;;;;;;4.82;1.90;;;;;;;15.48;51.71;101178.50;4981915;28;20148;-63
2023/06/06 03:32:44;;;;;;;4.32;2.92;;;;;;;15.47;51.47;101182.13;5004473;28;20029;-64
2023/06/06 03:35:14;;;;;;;5.15;2.38;;;;;;;15.42;51.72;101174.50;4989264;28;20577;-62
2023/06/06 03:37:42;;;;;;;8.75;2.45;;;;;;;15.42;51.90;101176.31;4986870;28;20124;-64
2023/06/06 03:40:11;;;;;;;6.35;2.40;;;;;;;15.43;51.88;101175.34;4969603;28;20080;-62
2023/06/06 03:42:38;;;;;;;5.65;2.50;;;;;;;15.43;51.86;101170.88;4987969;28;20060;-64
2023/06/06 03:45:05;;;;;;;4.45;2.20;;;;;;;15.45;51.81;101173.44;5006393;28;20057;-64
2023/06/06 03:47:33;;;;;;;3.35;2.08;;;;;;;15.44;51.92;101166.41;5011888;28;20417;-64
2023/06/06 03:50:01;;;;;;;4.25;2.97;;;;;;;15.44;51.99;101174.38;4974136;28;20567;-65
2023/06/06 03:52:29;;;;;;;5.82;2.70;;;;;;;15.42;52.43;101177.16;5010183;28;20041;-64
2023/06/06 03:54:56;;;;;;;7.57;2.75;;;;;;;15.43;52.28;101162.06;5018488;28;20065;-62
2023/06/06 03:57:24;;;;;;;4.53;2.20;;;;;;;15.43;52.13;101173.53;5011206;28;20510;-64
2023/06/06 03:59:51;;;;;;;5.28;2.55;;;;;;;15.47;52.07;101173.31;5017600;28;20104;-65
2023/06/06 04:02:19;;;;;;;6.38;2.38;;;;;;;15.47;52.20;101163.56;5001961;28;20078;-63
2023/06/06 04:04:51;;;;;;;5.70;2.40;;;;;;;15.48;52.19;101165.25;5004785;28;20530;-64
2023/06/06 04:07:19;;;;;;;6.32;2.30;;;;;;;15.49;52.13;101169.63;5001510;28;20064;-65
2023/06/06 04:09:46;;;;;;;3.90;2.22;;;;;;;15.51;52.00;101161.53;5010057;28;20050;-65
2023/06/06 04:12:14;;;;;;;6.43;2.70;;;;;;;15.52;52.11;101171.19;5010206;28;20049;-64
2023/06/06 04:14:41;;;;;;;6.28;2.28;;;;;;;15.54;52.06;101169.28;5008584;28;20112;-62
2023/06/06 04:17:09;;;;;;;6.97;2.95;;;;;;;15.58;51.87;101173.41;4993383;28;20073;-65
2023/06/06 04:19:36;;;;;;;3.92;2.50;;;;;;;15.59;52.30;101168.00;5010008;28;20050;-63
2023/06/06 04:22:05;;;;;;;4.25;2.47;;;;;;;15.56;52.40;101170.00;4988240;28;20046;-63
2023/06/06 04:24:32;;;;;;;6.68;2.75;;;;;;;15.56;52.20;101176.16;5002854;28;20490;-63
2023/06/06 04:27:03;;;;;;;4.20;2.30;;;;;;;15.56;52.27;101178.81;4995092;28;20818;-63
2023/06/06 04:29:34;;;;;;;10.98;2.83;;;;;;;15.61;52.37;101176.69;5003995;28;20449;-63
2023/06/06 04:32:07;;;;;;;6.63;3.05;;;;;;;15.66;52.16;101174.56;4974977;28;20145;-67
2023/06/06 04:34:39;;;;;;;4.00;2.40;;;;;;;15.70;51.90;101169.91;4984965;28;20128;-63
2023/06/06 04:37:08;;;;;;;5.90;2.40;;;;;;;15.76;51.94;101171.25;4983659;28;20113;-63
2023/06/06 04:39:40;;;;;;;3.95;2.70;;;;;;;15.79;51.74;101173.72;5000301;28;20046;-63
2023/06/06 04:42:16;;;;;;;7.55;2.45;;;;;;;15.85;51.69;101170.59;4978469;28;20050;-65
2023/06/06 04:44:46;;;;;;;3.40;2.47;;;;;;;15.92;51.56;101166.56;5003003;28;20050;-65
2023/06/06 04:47:18;;;;;;;9.32;2.78;;;;;;;15.98;51.63;101174.06;5006089;28;20053;-64
2023/06/06 04:49:54;;;;;;;;;;;;;;;16.02;51.44;101164.91;5010546;28;20048;-64
2023/06/06 04:52:30;;;;;;;7.18;2.55;;;;;;;16.10;51.12;101167.00;5008904;28;19930;-64
2023/06/06 04:55:07;;;;;;;11.98;2.72;;;;;;;16.18;51.03;101168.16;4997973;28;20097;-64
2023/06/06 04:57:47;;;;;;;8.38;2.67;;;;;;;16.29;50.88;101164.69;5005488;28;20080;-65
2023/06/06 05:00:21;;;;;;;6.90;2.63;;;;;;;16.40;50.65;101167.41;5008421;28;20062;-64
2023/06/06 05:02:51;;;;;;;4.50;2.40;;;;;;;16.50;50.26;101177.34;5000685;28;20058;-63
2023/06/06 05:05:22;;;;;;;7.35;2.47;;;;;;;16.60;50.22;101170.38;5012050;28;20054;-63
2023/06/06 05:07:55;;;;;;;5.57;2.53;;;;;;;16.70;49.70;101169.53;5003543;28;20106;-64
2023/06/06 05:10:29;;;;;;;5.15;2.72;;;;;;;16.85;49.67;101172.91;4993814;28;20657;-61
2023/06/06 05:13:03;;;;;;;12.57;3.22;;;;;;;16.95;49.29;101171.22;4997518;28;20050;-61
2023/06/06 05:15:32;;;;;;;7.22;2.65;;;;;;;17.07;49.22;101169.44;4996784;28;20062;-62
2023/06/06 05:18:06;;;;;;;8.48;2.47;;;;;;;17.19;48.90;101173.78;5003644;28;20065;-63
2023/06/06 05:20:45;;;;;;;6.85;3.00;;;;;;;17.36;48.54;101168.97;5004295;28;20046;-62
2023/06/06 05:23:17;;;;;;;6.57;2.70;;;;;;;17.46;48.36;101173.44;5001836;28;20046;-62
2023/06/06 05:25:56;;;;;;;10.75;3.55;;;;;;;17.66;47.57;101173.69;5007664;28;20052;-65
2023/06/06 05:28:32;;;;;;;7.10;2.92;;;;;;;17.83;47.22;101169.66;5004517;28;20173;-64
2023/06/06 05:31:07;;;;;;;8.73;3.05;;;;;;;17.98;47.25;101175.59;5000993;28;20069;-64
2023/06/06 05:33:52;;;;;;;5.57;2.60;;;;;;;18.14;46.68;101202.66;5004733;28;20089;-64
2023/06/06 05:36:42;;;;;;;9.00;2.90;;;;;;;18.30;46.46;101180.94;5011690;28;20041;-65
2023/06/06 05:39:20;;;;;;;7.70;2.33;;;;;;;18.42;45.74;101185.28;4989091;28;20050;-64
2023/06/06 05:42:01;;;;;;;6.25;2.03;;;;;;;18.58;45.59;101188.34;4986751;28;20140;-64
2023/06/06 05:44:43;;;;;;;6.15;2.00;;;;;;;18.75;44.94;101191.44;4997468;28;20117;-64
2023/06/06 05:47:21;;;;;;;9.23;2.75;;;;;;;18.90;44.81;101196.31;5010114;28;20165;-64
2023/06/06 05:50:02;;;;;;;11.38;3.42;;;;;;;19.02;44.22;101186.44;5007455;28;20058;-62
2023/06/06 05:52:35;;;;;;;9.95;2.63;;;;;;;19.09;43.73;101184.94;5005517;28;20057;-64
2023/06/06 05:55:30;;;;;;;5.97;2.67;;;;;;;19.23;43.22;101192.59;4997406;28;20042;-64
2023/06/06 05:58:09;;;;;;;7.82;2.60;;;;;;;19.37;42.68;101198.56;5011262;28;20577;-62
2023/06/06 06:00:41;;;;;;;8.68;2.75;;;;;;;19.46;42.89;101192.41;4991254;28;20037;-63
2023/06/06 06:03:17;;;;;;;7.40;2.50;;;;;;;19.54;42.51;101200.59;5007118;28;20047;-62
2023/06/06 06:05:47;;;;;;;6.90;2.85;;;;;;;19.67;42.19;101203.06;5003839;28;20544;-64
2023/06/06 06:08:21;;;;;;;6.70;2.80;;;;;;;19.75;42.10;101200.56;5006203;28;20438;-63
2023/06/06 06:10:52;;;;;;;9.77;2.90;;;;;;;19.89;41.66;101204.69;5007616;28;20050;-63
2023/06/06 06:13:52;;;;;;;11.73;3.47;;;;;;;20.06;41.37;101208.53;5006094;28;20607;-57
2023/06/06 06:16:28;;;;;;;14.57;3.20;;;;;;;20.21;41.00;101207.97;5000947;28;20082;-55
2023/06/06 06:19:04;;;;;;;6.10;2.65;;;;;;;20.30;40.73;101213.47;5004134;28;20120;-56
2023/06/06 06:21:36;;;;;;;7.07;2.75;;;;;;;20.42;40.36;101207.03;5010891;28;20494;-56
2023/06/06 06:24:07;;;;;;;5.07;2.70;;;;;;;20.48;39.80;101215.34;5002273;28;20093;-54
2023/06/06 06:26:36;;;;;;;7.35;2.63;;;;;;;20.52;39.75;101215.06;5007928;28;20136;-54
2023/06/06 06:29:16;;;;;;;6.10;3.03;;;;;;;20.57;39.57;101224.38;5000728;28;20045;-58
2023/06/06 06:31:45;;;;;;;6.97;2.92;;;;;;;20.69;39.67;101212.53;5006989;28;20697;-56
2023/06/06 06:34:19;;;;;;;10.35;3.72;;;;;;;20.90;39.16;101215.06;5006308;28;20175;-57
2023/06/06 06:36:48;;;;;;;11.88;3.15;;;;;;;21.09;38.79;101216.88;5003675;28;20557;-57
2023/06/06 06:39:31;;;;;;;6.47;2.90;;;;;;;21.22;38.50;101222.75;5005703;28;20714;-56
2023/06/06 06:42:03;;;;;;;10.48;3.50;;;;;;;21.28;38.48;101221.31;5007720;28;20594;-58
2023/06/06 06:44:40;;;;;;;8.57;2.72;;;;;;;21.35;38.47;101224.31;5007107;28;20483;-57
2023/06/06 06:47:09;;;;;;;6.82;2.58;;;;;;;21.41;38.41;101223.72;5003193;28;20134;-55
2023/06/06 06:49:41;;;;;;;6.60;3.20;;;;;;;21.44;38.36;101226.94;5016767;28;20054;-54
2023/06/06 06:52:18;;;;;;;11.70;3.22;;;;;;;21.42;38.12;101228.06;5007345;28;20058;-56
2023/06/06 06:54:59;;;;;;;9.05;2.88;;;;;;;21.40;38.62;101230.91;5010873;28;20057;-56
2023/06/06 06:57:38;;;;;;;38.95;28.73;;;;;;;21.29;39.57;101224.84;5008094;28;20041;-53
2023/06/06 07:00:23;;;;;;;35.03;17.38;;;;;;;21.23;40.10;101229.78;4987198;28;20049;-52
2023/06/06 07:02:54;;;;;;;24.58;6.22;;;;;;;21.25;40.72;101235.00;5009687;28;20073;-57
2023/06/06 07:05:37;;;;;;;12.20;4.07;;;;;;;21.22;39.63;101238.81;5008760;28;20074;-57
2023/06/06 07:08:23;;;;;;;10.50;4.18;;;;;;;21.30;39.62;101245.25;5010262;28;20066;-57
2023/06/06 07:11:06;;;;;;;7.25;3.20;;;;;;;21.40;40.07;101243.47;5008754;28;20038;-58
2023/06/06 07:13:40;;;;;;;8.20;2.90;;;;;;;21.52;39.13;101242.28;5011308;28;20037;-51
2023/06/06 07:16:09;;;;;;;13.70;3.28;;;;;;;21.69;39.07;101237.97;5002122;28;20050;-57
2023/06/06 07:18:51;;;;;;;7.78;3.78;;;;;;;21.91;38.66;101242.13;5000733;28;20042;-53
2023/06/06 07:21:36;;;;;;;6.57;3.88;;;;;;;22.12;38.71;101242.75;5005143;28;20159;-55
2023/06/06 07:24:09;;;;;;;109.38;94.72;;;;;;;22.31;38.40;101247.13;5006043;28;20049;-52
2023/06/06 07:26:57;;;;;;;46.63;23.60;;;;;;;22.53;38.05;101235.13;4984691;28;20080;-57
2023/06/06 07:29:41;;;;;;;13.25;6.18;;;;;;;22.72;37.76;101244.84;5005366;28;20141;-54
2023/06/06 07:32:22;;;;;;;10.18;4.75;;;;;;;22.88;37.54;101245.00;5002556;28;20050;-54
2023/06/06 07:34:53;;;;;;;8.90;3.25;;;;;;;23.09;36.80;101243.81;5007848;28;20088;-56
2023/06/06 07:37:32;;;;;;;11.48;5.95;;;;;;;23.21;37.46;101239.88;4993804;28;20128;-57
2023/06/06 07:40:16;;;;;;;10.07;2.90;;;;;;;23.28;36.90;101237.41;5002612;28;20125;-56
2023/06/06 07:42:48;;;;;;;14.50;4.20;;;;;;;23.41;36.55;101237.81;5000493;28;20077;-56
2023/06/06 07:45:23;;;;;;;7.88;3.58;;;;;;;23.49;36.35;101236.03;5008813;28;20060;-53
2023/06/06 07:47:57;;;;;;;19.40;10.38;;;;;;;23.60;36.18;101244.84;5003186;28;20042;-56
2023/06/06 07:50:36;;;;;;;39.08;27.70;;;;;;;23.65;35.81;101238.00;5003878;28;20030;-55
2023/06/06 07:53:10;;;;;;;16.60;7.13;;;;;;;23.66;36.65;101242.38;5003345;28;20435;-55
2023/06/06 07:55:43;;;;;;;10.45;4.60;;;;;;;23.63;36.43;101236.44;5006139;28;20068;-56
2023/06/06 07:58:25;;;;;;;14.13;5.45;;;;;;;23.68;38.51;101232.28;5005797;28;20041;-53
2023/06/06 08:01:03;;;;;;;10.90;5.72;;;;;;;23.80;38.21;101237.38;5004749;28;20038;-52
2023/06/06 08:03:36;;;;;;;12.10;4.93;;;;;;;23.91;37.86;101235.25;5002187;28;20164;-54
2023/06/06 08:06:13;;;;;;;6.70;3.10;;;;;;;24.09;37.74;101236.97;4987329;28;20050;-56
2023/06/06 08:08:48;;;;;;;9.88;2.95;;;;;;;24.25;37.88;101237.88;5006169;28;20096;-57
2023/06/06 08:11:31;;;;;;;6.10;2.90;;;;;;;24.37;36.80;101230.38;5005267;28;20045;-57
2023/06/06 08:14:11;;;;;;;11.32;3.83;;;;;;;24.46;36.97;101242.00;5010224;28;20061;-58
2023/06/06 08:16:45;;;;;;;9.10;3.28;;;;;;;24.57;36.17;101238.97;5001616;28;20141;-57
2023/06/06 08:19:16;;;;;;;8.55;3.35;;;;;;;24.66;36.84;101239.81;4999832;28;20149;-58
2023/06/06 08:21:51;;;;;;;10.75;3.42;;;;;;;24.73;37.54;101240.84;5003742;28;20045;-56
2023/06/06 08:24:28;;;;;;;7.78;3.38;;;;;;;24.86;37.77;101238.47;5001903;28;20045;-57
2023/06/06 08:26:58;;;;;;;8.57;4.05;;;;;;;24.92;38.19;101236.97;4997337;28;20133;-55
2023/06/06 08:29:27;;;;;;;9.77;3.20;;;;;;;24.98;36.51;101234.41;5003159;28;20100;-57
2023/06/06 08:32:01;;;;;;;7.35;3.00;;;;;;;25.11;36.71;101242.00;5006854;28;20034;-56
2023/06/06 08:34:33;;;;;;;11.00;3.95;;;;;;;25.10;36.39;101237.66;5004689;28;20046;-55
2023/06/06 08:37:07;;;;;;;11.15;3.38;;;;;;;25.11;35.98;101233.94;5018022;28;20060;-54
2023/06/06 08:39:44;;;;;;;7.53;3.33;;;;;;;25.21;35.95;101231.88;5007561;28;20052;-57
2023/06/06 08:42:18;;;;;;;10.55;3.13;;;;;;;25.23;35.83;101235.28;5009150;28;20054;-56
2023/06/06 08:44:52;;;;;;;9.80;3.00;;;;;;;25.27;36.19;101234.94;5008086;28;20050;-57
2023/06/06 08:47:30;;;;;;;7.65;3.53;;;;;;;25.21;35.57;101239.13;4972758;28;20045;-55
2023/06/06 08:50:04;;;;;;;14.35;3.90;;;;;;;25.31;36.10;101238.94;5009396;28;20048;-55
2023/06/06 08:52:40;;;;;;;24.80;3.88;;;;;;;25.38;35.76;101243.47;4996257;28;20128;-55
2023/06/06 08:55:25;;;;;;;9.88;3.70;;;;;;;25.48;35.59;101248.69;5006036;28;20065;-56
2023/06/06 08:57:57;;;;;;;9.40;3.30;;;;;;;25.59;35.90;101245.63;4993166;28;20057;-53
2023/06/06 09:00:33;;;;;;;13.05;3.45;;;;;;;25.72;35.87;101248.63;4978799;28;20034;-54
2023/06/06 09:03:11;;;;;;;6.93;3.75;;;;;;;25.81;35.88;101241.38;5007760;28;20060;-56
2023/06/06 09:05:44;;;;;;;14.77;3.13;;;;;;;25.96;35.04;101244.16;5004277;28;20030;-57
2023/06/06 09:08:17;;;;;;;7.25;3.67;;;;;;;26.03;33.26;101245.16;4992340;28;20522;-55
2023/06/06 09:10:48;;;;;;;31.33;23.17;;;;;;;26.06;32.70;101243.94;5011378;28;20038;-52
2023/06/06 09:13:17;;;;;;;24.80;18.85;;;;;;;26.05;31.61;101248.50;5008447;28;20050;-56
2023/06/06 09:15:53;;;;;;;14.93;7.82;;;;;;;25.92;32.10;101248.22;5009346;28;20053;-53
2023/06/06 09:18:28;;;;;;;13.13;4.82;;;;;;;25.94;32.40;101251.59;4991013;28;20149;-54
2023/06/06 09:20:58;;;;;;;12.13;5.03;;;;;;;26.17;32.27;101257.03;5007356;28;20049;-54
2023/06/06 09:23:35;;;;;;;8.40;4.72;;;;;;;26.26;31.76;101251.41;4993659;28;20069;-57
2023/06/06 09:26:21;;;;;;;7.97;4.07;;;;;;;26.53;31.53;101259.22;5008891;28;20053;-58
2023/06/06 09:28:57;;;;;;;11.65;4.18;;;;;;;26.66;31.42;101254.06;5007741;28;20149;-57
2023/06/06 09:31:32;;;;;;;9.20;3.75;;;;;;;26.73;33.44;101250.44;4970160;28;20054;-56
2023/06/06 09:34:09;;;;;;;11.05;3.78;;;;;;;26.83;32.37;101246.66;5007702;28;20053;-57
2023/06/06 09:36:44;;;;;;;8.13;3.70;;;;;;;26.83;32.60;101241.25;4985941;28;20469;-58
2023/06/06 09:39:15;;;;;;;8.18;3.83;;;;;;;26.85;33.69;101237.34;4990359;28;20476;-54
2023/06/06 09:41:48;;;;;;;8.10;3.60;;;;;;;26.85;32.56;101242.75;5007290;28;20565;-62
2023/06/06 09:44:28;;;;;;;8.40;3.08;;;;;;;26.81;32.94;101243.31;5005544;28;20046;-57
2023/06/06 09:47:01;;;;;;;10.02;3.38;;;;;;;26.80;32.44;101241.63;5005909;28;20117;-61
2023/06/06 09:49:42;;;;;;;21.60;4.32;;;;;;;26.75;31.76;101244.88;5006922;28;20122;-60
2023/06/06 09:52:16;;;;;;;7.93;2.92;;;;;;;26.63;31.88;101236.34;4991343;28;20049;-60
2023/06/06 09:54:45;;;;;;;5.22;3.33;;;;;;;26.67;33.36;101244.94;5002518;28;20050;-61
2023/06/06 09:57:17;;;;;;;7.40;3.03;;;;;;;26.76;32.75;101239.28;5016665;28;20070;-60
2023/06/06 09:59:53;;;;;;;6.10;3.25;;;;;;;26.86;32.33;101239.03;5009792;28;20090;-61
2023/06/06 10:02:23;;;;;;;11.27;3.90;;;;;;;26.94;32.45;101232.72;5011393;28;20060;-61
2023/06/06 10:04:59;;;;;;;6.35;3.13;;;;;;;27.01;32.68;101239.88;5008402;28;20075;-58
2023/06/06 10:07:31;;;;;;;12.80;3.50;;;;;;;27.09;32.88;101230.06;5005665;28;20120;-60
2023/06/06 10:10:02;;;;;;;6.72;3.38;;;;;;;27.01;31.94;101233.66;5008582;28;20062;-60
2023/06/06 10:12:41;;;;;;;10.07;3.40;;;;;;;26.88;31.74;101241.53;4996642;28;20063;-60
2023/06/06 10:15:13;;;;;;;4.72;3.60;;;;;;;26.81;32.08;101235.19;5005354;28;20050;-59
2023/06/06 10:17:44;;;;;;;8.32;3.65;;;;;;;26.94;32.79;101230.03;5008361;28;20641;-61
2023/06/06 10:20:16;;;;;;;5.97;3.70;;;;;;;27.09;32.73;101230.06;4995747;28;20139;-60
2023/06/06 10:22:44;;;;;;;11.05;3.28;;;;;;;27.17;33.31;101230.84;5012610;28;20030;-59
2023/06/06 10:25:17;;;;;;;10.00;4.05;;;;;;;27.17;32.57;101233.53;4996556;28;20056;-59
2023/06/06 10:28:20;;;;;;;4.93;3.63;;;;;;;26.90;31.88;101229.53;4999506;28;20128;-59
2023/06/06 10:31:06;;;;;;;6.63;3.03;;;;;;;26.80;31.75;101236.22;5010029;28;20545;-60
2023/06/06 10:33:56;;;;;;;7.13;3.28;;;;;;;26.74;31.73;101241.31;5010975;28;20049;-60
2023/06/06 10:36:31;;;;;;;5.97;3.47;;;;;;;26.88;31.84;101233.44;5007822;28;20065;-60
2023/06/06 10:39:23;;;;;;;7.65;3.15;;;;;;;26.96;31.71;101236.06;4988972;28;20096;-58
2023/06/06 10:42:00;;;;;;;5.28;2.88;;;;;;;27.21;32.40;101237.56;5010152;28;20122;-61
2023/06/06 10:44:51;;;;;;;6.85;3.50;;;;;;;27.21;31.53;101242.97;4979798;28;20056;-61
2023/06/06 10:47:20;;;;;;;5.65;2.90;;;;;;;27.22;31.36;101243.78;5001548;28;20486;-61
2023/06/06 10:50:12;;;;;;;6.47;3.03;;;;;;;27.39;30.93;101239.06;5002371;28;20100;-62
2023/06/06 10:52:46;;;;;;;11.85;3.95;;;;;;;27.56;31.16;101237.88;4990102;28;20041;-60
2023/06/06 10:55:44;;;;;;;7.25;3.17;;;;;;;27.79;30.50;101229.66;5006646;28;20050;-60
2023/06/06 10:58:38;;;;;;;10.35;3.00;;;;;;;27.91;29.95;101238.13;5005976;28;20119;-59
2023/06/06 11:01:10;;;;;;;4.10;3.38;;;;;;;27.66;29.32;101233.00;4990576;28;20095;-61
2023/06/06 11:03:42;;;;;;;7.15;3.13;;;;;;;27.56;29.52;101232.44;5001551;28;20061;-60
2023/06/06 11:06:27;;;;;;;7.82;3.38;;;;;;;27.43;29.63;101224.16;5005926;28;20720;-59
2023/06/06 11:08:59;;;;;;;5.78;3.03;;;;;;;27.17;29.48;101224.59;5000552;28;20045;-60
2023/06/06 11:11:33;;;;;;;4.75;2.95;;;;;;;27.18;29.64;101218.16;4987775;28;20143;-60
2023/06/06 11:14:10;;;;;;;8.50;3.92;;;;;;;27.00;30.04;101219.31;5000032;28;20116;-61
2023/06/06 11:16:45;;;;;;;5.50;3.00;;;;;;;26.88;30.37;101217.22;5002719;28;20230;-61
2023/06/06 11:19:33;;;;;;;4.93;3.88;;;;;;;26.86;30.96;101216.56;5006001;28;20092;-61
2023/06/06 11:22:23;;;;;;;4.30;3.05;;;;;;;26.89;30.41;101210.81;5003660;28;20042;-61
2023/06/06 11:24:58;;;;;;;9.15;3.10;;;;;;;27.02;30.83;101211.88;5001542;28;20053;-62
2023/06/06 11:27:30;;;;;;;8.60;4.05;;;;;;;27.11;30.65;101217.19;5009006;28;20050;-61
2023/06/06 11:30:00;;;;;;;4.93;3.50;;;;;;;27.20;31.25;101208.00;5009039;28;20096;-61
2023/06/06 11:32:34;;;;;;;4.65;3.00;;;;;;;27.20;30.48;101219.66;4986929;28;20073;-59
2023/06/06 11:35:14;;;;;;;5.07;3.28;;;;;;;27.20;31.05;101218.81;5004128;28;20153;-59
2023/06/06 11:37:42;;;;;;;4.75;3.40;;;;;;;27.21;30.93;101210.53;5009427;28;20092;-61
2023/06/06 11:40:14;;;;;;;7.03;3.85;;;;;;;27.11;31.03;101215.38;5003137;28;20092;-61
2023/06/06 11:42:43;;;;;;;6.03;3.20;;;;;;;27.08;30.44;101212.16;4987863;28;20080;-60
2023/06/06 11:45:15;;;;;;;6.55;3.88;;;;;;;26.88;30.67;101217.22;5005588;28;20046;-60
2023/06/06 11:47:44;;;;;;;4.25;3.20;;;;;;;26.54;31.03;101207.72;5002595;23;20469;-70
2023/06/06 11:50:13;;;;;;;8.48;3.38;;;;;;;26.39;31.54;101204.94;4966200;28;20057;-67
2023/06/06 11:52:52;;;;;;;6.80;3.28;;;;;;;26.24;30.86;101206.72;4958256;28;20113;-75